Time;durP1;ratioP1;P1;durP2;ratioP2;P2;SDS_P1;SDS_P2;PMS_P1;PMS_P2;Temp;Humidity;BMP_temperature;BMP_pressure;BME280_temperature;BME280_humidity;BME280_pressure;Samples;Min_cycle;Max_cycle;Signal;HPM_P1;HPM_P2
2022/06/29 00:01:37;;;;;;;9.80;8.93;;;;;;;24.31;62.60;99543.35;1694664;84;21041;-42
2022/06/29 00:04:05;;;;;;;10.58;9.55;;;;;;;24.32;62.23;99542.14;1694673;84;21873;-42
2022/06/29 00:06:32;;;;;;;10.23;9.25;;;;;;;24.31;61.64;99546.13;1694528;84;20989;-42
2022/06/29 00:08:59;;;;;;;11.35;9.73;;;;;;;24.30;61.52;99546.77;1694632;84;21032;-42
2022/06/29 00:11:26;;;;;;;10.08;9.08;;;;;;;24.28;61.22;99549.20;1694542;84;21053;-42
2022/06/29 00:13:54;;;;;;;10.85;9.75;;;;;;;24.26;61.02;99550.23;1694463;84;21037;-42
2022/06/29 00:16:22;;;;;;;11.00;9.85;;;;;;;24.24;60.84;99548.55;1694772;84;21230;-42
2022/06/29 00:18:49;;;;;;;11.18;9.95;;;;;;;24.21;60.31;99556.34;1694702;83;21116;-44
2022/06/29 00:21:16;;;;;;;10.48;9.40;;;;;;;24.18;60.28;99555.86;1700527;84;21511;-42
2022/06/29 00:23:43;;;;;;;11.83;9.98;;;;;;;24.15;60.40;99562.28;1700300;84;21036;-42
2022/06/29 00:26:11;;;;;;;11.22;10.08;;;;;;;24.15;59.95;99560.89;1700379;84;21008;-42
2022/06/29 00:28:38;;;;;;;12.63;10.18;;;;;;;24.15;59.60;99559.51;1700326;84;21542;-42
2022/06/29 00:31:05;;;;;;;14.10;10.60;;;;;;;24.15;59.80;99566.44;1700022;84;21502;-42
2022/06/29 00:33:32;;;;;;;11.48;10.28;;;;;;;24.14;60.02;99567.65;1699975;84;21100;-42
2022/06/29 00:36:00;;;;;;;12.18;10.32;;;;;;;24.12;59.85;99563.93;1700054;84;21028;-42
2022/06/29 00:38:27;;;;;;;11.65;10.45;;;;;;;24.08;60.66;99574.36;1700051;84;21044;-42
2022/06/29 00:40:54;;;;;;;14.87;10.90;;;;;;;24.00;60.33;99571.66;1700161;84;21127;-42
2022/06/29 00:43:21;;;;;;;12.13;10.88;;;;;;;23.88;60.38;99568.28;1699847;84;21709;-42
2022/06/29 00:45:48;;;;;;;11.33;10.32;;;;;;;23.75;60.88;99568.30;1700102;84;21060;-42
2022/06/29 00:48:15;;;;;;;11.93;10.68;;;;;;;23.65;61.27;99574.94;1699959;84;21651;-42
2022/06/29 00:50:42;;;;;;;11.10;10.10;;;;;;;23.55;61.63;99571.89;1700155;84;21044;-42
2022/06/29 00:53:10;;;;;;;12.23;10.95;;;;;;;23.53;61.86;99563.24;1700129;84;21875;-42
2022/06/29 00:55:37;;;;;;;11.45;10.35;;;;;;;23.49;61.77;99563.97;1674222;84;21566;-42
2022/06/29 00:58:05;;;;;;;11.50;10.48;;;;;;;23.47;61.86;99566.41;1700130;84;21009;-42
2022/06/29 01:00:33;;;;;;;11.90;10.72;;;;;;;23.45;62.06;99563.91;1700008;84;21113;-42
2022/06/29 01:03:00;;;;;;;11.40;10.30;;;;;;;23.44;62.21;99560.33;1700328;84;21076;-42
2022/06/29 01:05:28;;;;;;;12.68;10.50;;;;;;;23.46;61.86;99557.94;1699996;84;22212;-42
2022/06/29 01:07:56;;;;;;;11.45;10.23;;;;;;;23.46;61.86;99556.55;1700308;84;20953;-42
2022/06/29 01:10:24;;;;;;;11.00;9.88;;;;;;;23.45;61.86;99557.77;1700147;84;21103;-42
2022/06/29 01:12:51;;;;;;;11.00;10.00;;;;;;;23.39;61.96;99552.58;1700080;84;21028;-42
2022/06/29 01:15:19;;;;;;;11.75;10.25;;;;;;;23.35;61.99;99550.53;1700201;84;21072;-42
2022/06/29 01:17:47;;;;;;;11.05;10.05;;;;;;;23.31;61.91;99544.33;1700506;84;21138;-42
2022/06/29 01:20:14;;;;;;;12.98;10.00;;;;;;;23.28;61.91;99547.99;1701615;83;21037;-42
2022/06/29 01:22:41;;;;;;;11.15;10.20;;;;;;;23.24;61.89;99545.31;1709824;83;21009;-42
2022/06/29 01:25:09;;;;;;;11.53;10.15;;;;;;;23.22;61.99;99548.36;1710024;83;21014;-42
2022/06/29 01:27:36;;;;;;;12.47;10.55;;;;;;;23.20;61.88;99552.16;1709819;84;21105;-42
2022/06/29 01:30:07;;;;;;;11.97;10.08;;;;;;;23.17;61.86;99548.91;1709579;84;23205;-42
2022/06/29 01:35:22;;;;;;;11.45;10.23;;;;;;;23.13;62.16;99555.16;1796661;79;22362;-42
2022/06/29 01:37:49;;;;;;;12.57;10.73;;;;;;;23.03;62.32;99562.55;1756965;81;20969;-42
2022/06/29 01:40:16;;;;;;;12.13;10.85;;;;;;;23.01;62.41;99555.28;1751628;81;21877;-42
2022/06/29 01:42:43;;;;;;;11.57;10.40;;;;;;;22.95;62.58;99566.70;1756589;81;20921;-42
2022/06/29 01:45:11;;;;;;;11.40;10.30;;;;;;;22.89;62.54;99567.88;1756734;81;20929;-42
2022/06/29 01:47:38;;;;;;;13.60;11.15;;;;;;;22.87;62.55;99566.74;1756594;81;21155;-42
2022/06/29 01:50:07;;;;;;;13.20;10.40;;;;;;;22.84;62.75;99571.17;1756729;81;21012;-42
2022/06/29 01:52:34;;;;;;;14.10;11.75;;;;;;;22.85;62.91;99579.61;1756578;81;21109;-42
2022/06/29 01:55:01;;;;;;;13.18;11.60;;;;;;;22.86;63.17;99588.08;1756531;81;20932;-42
2022/06/29 01:57:28;;;;;;;12.68;11.30;;;;;;;22.90;63.02;99587.38;1756782;81;21481;-42
2022/06/29 01:59:56;;;;;;;12.90;11.70;;;;;;;22.94;63.22;99586.69;1756569;81;20917;-42
2022/06/29 02:02:23;;;;;;;12.30;11.10;;;;;;;23.00;62.95;99593.82;1756745;81;21275;-42
2022/06/29 02:04:50;;;;;;;12.65;11.45;;;;;;;23.07;62.78;99588.70;1756516;81;21202;-42
2022/06/29 02:07:18;;;;;;;19.27;11.73;;;;;;;23.12;62.82;99586.78;1756528;81;21017;-42
2022/06/29 02:09:46;;;;;;;13.20;11.90;;;;;;;23.13;62.69;99584.20;1756818;81;20961;-42
2022/06/29 02:12:14;;;;;;;13.43;11.93;;;;;;;23.14;62.41;99592.03;1756508;81;21560;-42
2022/06/29 02:14:41;;;;;;;14.70;11.60;;;;;;;23.16;62.35;99597.13;1756748;81;21075;-42
2022/06/29 02:17:09;;;;;;;12.98;11.68;;;;;;;23.18;62.35;99601.03;1756821;81;23160;-42
2022/06/29 02:19:36;;;;;;;13.40;11.40;;;;;;;23.18;62.48;99597.48;1756551;81;21542;-42
2022/06/29 02:22:04;;;;;;;12.70;11.40;;;;;;;23.15;62.57;99595.58;1756835;81;20992;-42
2022/06/29 02:24:31;;;;;;;13.43;11.43;;;;;;;23.16;62.63;99606.21;1756658;81;21076;-42
2022/06/29 02:26:59;;;;;;;12.78;11.25;;;;;;;23.17;62.44;99602.84;1756779;81;21495;-42
2022/06/29 02:29:26;;;;;;;12.80;11.50;;;;;;;23.13;62.53;99600.19;1756811;81;21542;-42
2022/06/29 02:34:46;;;;;;;12.65;11.38;;;;;;;23.02;63.72;99605.83;1756534;81;21029;-42
2022/06/29 02:37:14;;;;;;;12.85;11.55;;;;;;;22.88;64.84;99609.77;1756946;81;21076;-42
2022/06/29 02:39:45;;;;;;;12.70;11.38;;;;;;;22.82;65.46;99608.14;1757110;81;21087;-42
2022/06/29 02:42:13;;;;;;;14.40;12.10;;;;;;;22.84;65.67;99611.86;1756946;81;21246;-42
2022/06/29 02:44:40;;;;;;;14.50;11.73;;;;;;;22.87;65.37;99612.36;1756630;81;21008;-42
2022/06/29 02:47:09;;;;;;;12.65;11.43;;;;;;;22.90;64.92;99612.25;1756425;81;21005;-42
2022/06/29 02:49:37;;;;;;;13.75;11.08;;;;;;;22.92;64.70;99617.36;1756396;81;21004;-42
2022/06/29 02:52:05;;;;;;;12.53;11.33;;;;;;;22.92;64.52;99620.90;1756349;81;21053;-42
2022/06/29 02:54:33;;;;;;;13.87;12.10;;;;;;;22.97;64.51;99625.13;1756640;81;21562;-42
2022/06/29 02:57:00;;;;;;;13.70;12.30;;;;;;;23.02;64.19;99623.20;1756332;81;20961;-42
2022/06/29 02:59:28;;;;;;;13.88;12.10;;;;;;;23.08;63.89;99626.22;1756307;81;21523;-42
2022/06/29 03:01:55;;;;;;;13.05;11.80;;;;;;;23.11;63.88;99621.96;1756474;81;20981;-42
2022/06/29 03:04:22;;;;;;;13.53;12.07;;;;;;;23.15;63.95;99622.63;1756383;81;21029;-42
2022/06/29 03:06:49;;;;;;;13.22;11.90;;;;;;;23.17;63.74;99620.22;1756470;81;21093;-42
2022/06/29 03:09:16;;;;;;;13.68;12.37;;;;;;;23.19;63.50;99633.62;1756195;81;21072;-42
2022/06/29 03:11:43;;;;;;;13.38;12.07;;;;;;;23.22;63.36;99650.11;1756516;81;21583;-42
2022/06/29 03:14:10;;;;;;;13.88;12.47;;;;;;;23.26;63.21;99641.70;1756340;81;21024;-42
2022/06/29 03:16:38;;;;;;;13.85;12.45;;;;;;;23.29;63.29;99636.06;1756225;81;21037;-42
2022/06/29 03:19:05;;;;;;;12.80;11.57;;;;;;;23.34;63.26;99634.73;1756401;81;21242;-42
2022/06/29 03:21:33;;;;;;;13.72;12.40;;;;;;;23.42;63.21;99637.48;1756395;81;20961;-42
2022/06/29 03:24:03;;;;;;;12.90;11.55;;;;;;;23.49;63.19;99629.60;1756523;81;21024;-42
2022/06/29 03:26:31;;;;;;;13.83;12.55;;;;;;;23.54;62.94;99631.22;1756620;81;20964;-42
2022/06/29 03:28:58;;;;;;;14.15;12.75;;;;;;;23.60;62.77;99643.30;1756781;81;21080;-42
2022/06/29 03:31:26;;;;;;;14.10;12.80;;;;;;;23.64;62.61;99635.66;1756367;81;23142;-42
2022/06/29 03:33:53;;;;;;;14.60;13.10;;;;;;;23.70;62.60;99624.83;1755255;81;21020;-42
2022/06/29 03:36:20;;;;;;;13.90;12.63;;;;;;;23.70;62.23;99626.21;1748435;82;21025;-42
2022/06/29 03:38:47;;;;;;;13.85;12.55;;;;;;;23.72;62.26;99632.84;1748411;82;21369;-42
2022/06/29 03:41:14;;;;;;;13.38;12.05;;;;;;;23.77;62.55;99630.91;1748633;82;21563;-42
2022/06/29 03:43:42;;;;;;;14.38;12.98;;;;;;;23.81;62.72;99629.44;1748440;82;21127;-42
2022/06/29 03:46:09;;;;;;;14.10;12.60;;;;;;;23.81;63.15;99629.44;1748473;82;20977;-42
2022/06/29 03:48:36;;;;;;;13.05;11.90;;;;;;;23.85;63.53;99634.25;1748545;82;21009;-42
2022/06/29 03:51:04;;;;;;;14.73;12.85;;;;;;;23.90;63.24;99626.78;1748488;82;20977;-42
2022/06/29 03:53:31;;;;;;;14.80;12.65;;;;;;;23.95;62.82;99629.60;1748468;82;21088;-42
2022/06/29 03:55:58;;;;;;;13.88;12.47;;;;;;;23.99;63.22;99628.27;1748647;82;21136;-42
2022/06/29 03:58:26;;;;;;;15.65;13.60;;;;;;;24.04;62.81;99620.79;1748350;82;21629;-42
2022/06/29 04:00:53;;;;;;;14.95;13.55;;;;;;;24.07;62.87;99613.57;1748507;82;21554;-42
2022/06/29 04:03:20;;;;;;;14.98;13.53;;;;;;;24.04;63.21;99620.01;1748504;82;20934;-42
2022/06/29 04:05:47;;;;;;;15.00;13.10;;;;;;;24.03;63.21;99626.77;1748642;82;21024;-42
2022/06/29 04:08:16;;;;;;;15.45;13.05;;;;;;;24.04;63.46;99626.94;1748486;82;21496;-42
2022/06/29 04:10:43;;;;;;;15.00;13.43;;;;;;;24.08;63.63;99623.44;1748387;82;20934;-42
2022/06/29 04:13:10;;;;;;;15.13;13.65;;;;;;;24.11;63.56;99623.92;1748529;82;20997;-42
2022/06/29 04:15:38;;;;;;;15.58;14.05;;;;;;;24.14;63.69;99624.44;1748619;82;20957;-42
2022/06/29 04:18:06;;;;;;;15.10;13.62;;;;;;;24.15;63.48;99624.61;1748859;82;21562;-42
2022/06/29 04:23:19;;;;;;;15.75;13.98;;;;;;;24.23;63.35;99627.33;1748592;82;21031;-42
2022/06/29 04:25:46;;;;;;;16.32;14.78;;;;;;;24.28;63.38;99619.07;1748653;82;21492;-42
2022/06/29 04:28:15;;;;;;;15.83;14.23;;;;;;;24.33;63.17;99615.73;1748391;82;20922;-42
2022/06/29 04:30:42;;;;;;;16.23;14.60;;;;;;;24.39;62.97;99618.89;1748579;82;21578;-42
2022/06/29 04:33:09;;;;;;;15.93;14.38;;;;;;;24.49;62.91;99612.22;1748479;82;21284;-42
2022/06/29 04:35:36;;;;;;;15.95;14.45;;;;;;;24.61;62.57;99619.71;1738380;81;21468;-42
2022/06/29 04:38:04;;;;;;;15.23;13.72;;;;;;;24.73;62.25;99619.52;1734662;82;20977;-42
2022/06/29 04:40:31;;;;;;;15.75;14.00;;;;;;;24.81;62.14;99611.72;1734451;82;21650;-42
2022/06/29 04:42:59;;;;;;;15.23;13.83;;;;;;;24.90;61.85;99607.66;1734771;82;20959;-42
2022/06/29 04:48:11;;;;;;;14.55;13.20;;;;;;;25.01;61.53;99593.58;1734435;82;20939;-42
2022/06/29 04:50:39;;;;;;;14.28;12.88;;;;;;;25.10;61.82;99584.53;1734176;82;21544;-42
2022/06/29 04:53:06;;;;;;;15.53;13.93;;;;;;;25.18;61.83;99582.27;1720323;82;21072;-42
2022/06/29 04:55:33;;;;;;;15.18;13.83;;;;;;;25.26;61.77;99581.56;1713432;83;20946;-42
2022/06/29 04:58:00;;;;;;;13.62;12.30;;;;;;;25.34;61.66;99575.89;1713651;83;21784;-42
2022/06/29 05:00:27;;;;;;;14.58;13.08;;;;;;;25.43;61.82;99584.27;1713314;82;21029;-42
2022/06/29 05:02:55;;;;;;;14.63;13.22;;;;;;;25.52;61.92;99575.98;1713131;83;21504;-42
2022/06/29 05:05:22;;;;;;;13.75;12.43;;;;;;;25.71;61.58;99578.86;1713334;82;21575;-42
2022/06/29 05:07:49;;;;;;;13.03;11.83;;;;;;;25.81;60.84;99583.22;1713288;83;21536;-42
2022/06/29 05:10:17;;;;;;;13.60;12.40;;;;;;;25.90;60.42;99584.03;1713264;83;21131;-42
2022/06/29 05:12:44;;;;;;;14.45;12.95;;;;;;;26.01;60.69;99582.22;1713271;82;21057;-42
2022/06/29 05:15:11;;;;;;;14.90;13.38;;;;;;;26.11;60.24;99581.02;1713142;83;21497;-42
2022/06/29 05:17:40;;;;;;;14.70;13.30;;;;;;;26.21;60.00;99578.44;1713515;82;20973;-43
2022/06/29 05:20:09;;;;;;;14.65;13.22;;;;;;;26.29;59.98;99579.68;1713452;83;21795;-43
2022/06/29 05:22:36;;;;;;;15.05;13.75;;;;;;;26.34;59.71;99578.30;1713686;82;21720;-42
2022/06/29 05:25:05;;;;;;;15.53;14.03;;;;;;;26.41;59.54;99582.80;1713239;83;21001;-43
2022/06/29 05:27:32;;;;;;;15.03;13.60;;;;;;;26.47;59.46;99575.39;1713457;82;20926;-42
2022/06/29 05:29:59;;;;;;;13.70;12.50;;;;;;;26.58;58.94;99582.03;1713198;83;21021;-42
2022/06/29 05:32:26;;;;;;;14.60;13.30;;;;;;;26.69;58.59;99578.80;1713378;83;21551;-43
2022/06/29 05:34:53;;;;;;;14.20;12.88;;;;;;;26.79;58.24;99576.16;1713192;82;21143;-43
2022/06/29 05:37:20;;;;;;;14.95;13.18;;;;;;;26.89;57.77;99583.92;1713267;83;20953;-42
2022/06/29 05:39:48;;;;;;;14.90;13.30;;;;;;;26.98;57.39;99591.64;1713207;83;21513;-42
2022/06/29 05:42:15;;;;;;;15.38;12.75;;;;;;;27.07;56.89;99598.58;1713524;83;21026;-42
2022/06/29 05:44:42;;;;;;;13.85;12.55;;;;;;;27.12;56.81;99595.17;1713577;83;21536;-42
2022/06/29 05:47:10;;;;;;;14.23;12.65;;;;;;;27.22;56.50;99599.48;1713377;83;23171;-42
2022/06/29 05:49:37;;;;;;;13.03;11.83;;;;;;;27.29;55.73;99594.84;1713402;83;21919;-43
2022/06/29 05:52:06;;;;;;;12.95;11.60;;;;;;;27.33;55.60;99600.40;1713330;83;21042;-42
2022/06/29 05:54:35;;;;;;;12.40;11.25;;;;;;;27.38;55.54;99597.60;1731794;82;20949;-43
2022/06/29 05:57:02;;;;;;;12.35;11.15;;;;;;;27.44;54.60;99602.08;1748368;82;21016;-43
2022/06/29 05:59:30;;;;;;;13.08;11.78;;;;;;;27.50;53.65;99599.44;1748107;82;21120;-42
2022/06/29 06:01:57;;;;;;;12.73;11.22;;;;;;;27.53;53.77;99598.52;1748058;82;21539;-43
2022/06/29 06:04:25;;;;;;;12.88;11.57;;;;;;;27.58;54.57;99595.88;1748233;82;20928;-42
2022/06/29 06:06:52;;;;;;;12.33;11.05;;;;;;;27.66;53.86;99599.86;1748371;82;21001;-42
2022/06/29 06:09:25;;;;;;;13.45;11.28;;;;;;;27.74;53.92;99598.14;1748139;82;21358;-42
2022/06/29 06:11:48;;;;;;;12.70;11.40;;;;;;;27.84;53.59;99590.65;1747923;82;21460;-42
2022/06/29 06:14:15;;;;;;;12.40;11.18;;;;;;;27.93;52.99;99597.57;1748163;82;21079;-43
2022/06/29 06:16:42;;;;;;;12.07;10.78;;;;;;;28.02;52.48;99599.56;1748150;82;21546;-43
2022/06/29 06:19:10;;;;;;;11.45;10.35;;;;;;;28.09;52.41;99597.80;1748177;82;21032;-42
2022/06/29 06:21:38;;;;;;;12.37;11.20;;;;;;;28.18;52.47;99599.79;1748114;82;21071;-42
2022/06/29 06:24:06;;;;;;;11.83;10.72;;;;;;;28.27;52.27;99596.33;1748334;82;21140;-43
2022/06/29 06:26:34;;;;;;;12.95;10.75;;;;;;;28.38;51.96;99590.99;1748561;82;21522;-43
2022/06/29 06:29:01;;;;;;;12.05;10.85;;;;;;;28.45;51.60;99592.66;1748402;82;20992;-43
2022/06/29 06:31:29;;;;;;;12.23;11.05;;;;;;;28.52;51.24;99589.50;1748280;82;20925;-43
2022/06/29 06:33:56;;;;;;;12.03;10.90;;;;;;;28.56;50.47;99583.14;1748139;82;21063;-43
2022/06/29 06:36:23;;;;;;;13.98;10.82;;;;;;;28.63;50.40;99577.17;1748192;81;21137;-43
2022/06/29 06:38:50;;;;;;;11.50;10.35;;;;;;;28.68;49.63;99569.55;1748104;82;21549;-43
2022/06/29 06:41:27;;;;;;;10.88;9.85;;;;;;;28.73;49.22;99570.31;1748289;82;21025;-43
2022/06/29 06:43:57;;;;;;;10.88;9.90;;;;;;;28.79;49.14;99569.80;1748252;82;21026;-43
2022/06/29 06:46:24;;;;;;;;;;;;;;;28.87;49.44;99576.53;1751197;82;21031;-43
2022/06/29 06:48:52;;;;;;;11.60;9.58;;;;;;;28.98;49.16;99573.81;1748369;82;21217;-43
2022/06/29 06:51:21;;;;;;;11.18;9.93;;;;;;;29.00;49.19;99568.53;1748162;82;21011;-43
2022/06/29 06:53:48;;;;;;;10.08;9.18;;;;;;;29.13;48.47;99569.01;1748891;82;21511;-43
2022/06/29 06:56:16;;;;;;;10.75;8.90;;;;;;;29.27;47.84;99576.62;1748532;82;21023;-43
2022/06/29 06:58:43;;;;;;;10.28;9.30;;;;;;;29.35;47.35;99563.20;1748373;82;21032;-43
2022/06/29 07:01:10;;;;;;;10.15;8.93;;;;;;;29.47;46.64;99564.79;1748671;82;21339;-43
2022/06/29 07:03:38;;;;;;;9.75;8.85;;;;;;;29.58;46.26;99568.52;1748446;82;20921;-43
2022/06/29 07:06:10;;;;;;;8.93;8.13;;;;;;;29.67;46.02;99569.05;1748534;82;21052;-43
2022/06/29 07:08:38;;;;;;;9.65;8.75;;;;;;;29.76;45.64;99572.50;1748349;82;21028;-43
2022/06/29 07:11:06;;;;;;;10.28;9.28;;;;;;;29.86;45.46;99570.98;1748797;82;21065;-43
2022/06/29 07:13:34;;;;;;;9.80;8.80;;;;;;;29.93;43.78;99565.77;1748553;82;21807;-43
2022/06/29 07:16:05;;;;;;;9.43;8.40;;;;;;;29.97;44.61;99562.77;1748403;82;20956;-43
2022/06/29 07:18:34;;;;;;;10.32;9.25;;;;;;;30.04;44.26;99559.57;1748280;82;21486;-43
2022/06/29 07:21:01;;;;;;;10.05;9.05;;;;;;;30.12;42.89;99558.66;1748535;82;21056;-43
2022/06/29 07:23:29;;;;;;;9.53;8.63;;;;;;;30.16;43.11;99552.89;1748062;82;21020;-43
2022/06/29 07:25:57;;;;;;;8.65;7.85;;;;;;;30.20;43.53;99550.64;1748342;82;21078;-43
2022/06/29 07:28:25;;;;;;;9.30;8.50;;;;;;;30.27;43.77;99551.61;1748305;82;21699;-43
2022/06/29 07:30:52;;;;;;;9.93;8.83;;;;;;;30.36;43.52;99547.27;1748348;82;20913;-43
2022/06/29 07:33:19;;;;;;;9.58;8.68;;;;;;;30.48;43.34;99541.98;1748179;82;20968;-43
2022/06/29 07:35:46;;;;;;;9.90;8.65;;;;;;;30.60;42.28;99541.47;1750455;81;21460;-43
2022/06/29 07:38:13;;;;;;;9.05;8.20;;;;;;;30.70;42.74;99533.69;1753929;81;21186;-43
2022/06/29 07:40:40;;;;;;;9.60;8.70;;;;;;;30.85;42.33;99539.95;1753581;81;21511;-43
2022/06/29 07:43:08;;;;;;;10.10;9.10;;;;;;;31.01;41.97;99536.56;1753831;81;20999;-43
2022/06/29 07:45:36;;;;;;;9.23;8.43;;;;;;;31.19;41.79;99543.23;1753705;81;21036;-43
2022/06/29 07:48:07;;;;;;;9.73;8.83;;;;;;;31.33;41.62;99540.17;1753695;81;21017;-43
2022/06/29 07:50:36;;;;;;;9.40;8.50;;;;;;;31.43;41.37;99528.28;1753800;81;21132;-43
2022/06/29 07:53:05;;;;;;;9.35;8.60;;;;;;;31.54;41.61;99531.80;1753963;81;21028;-43
2022/06/29 07:55:32;;;;;;;10.58;9.50;;;;;;;31.67;40.94;99528.59;1753895;81;21526;-43
2022/06/29 07:57:59;;;;;;;9.48;8.58;;;;;;;30.81;40.28;99386.85;1753940;81;21039;-43
2022/06/29 08:00:27;;;;;;;10.10;9.10;;;;;;;31.80;39.90;99538.77;1753565;81;21543;-43
2022/06/29 08:02:54;;;;;;;9.95;8.98;;;;;;;31.75;39.28;99536.70;1753962;81;21139;-43
2022/06/29 08:05:23;;;;;;;9.48;8.58;;;;;;;31.71;39.74;99536.16;1753756;81;21080;-43
2022/06/29 08:07:51;;;;;;;9.43;8.63;;;;;;;31.71;40.24;99527.76;1754087;81;21015;-43
2022/06/29 08:10:19;;;;;;;8.75;8.03;;;;;;;31.75;40.60;99529.69;1753816;81;21032;-43
2022/06/29 08:12:46;;;;;;;9.03;8.15;;;;;;;31.84;40.13;99526.69;1753918;81;21012;-43
2022/06/29 08:15:15;;;;;;;9.35;8.00;;;;;;;31.99;39.85;99523.07;1753758;81;21207;-43
2022/06/29 08:17:45;;;;;;;10.30;7.85;;;;;;;32.17;39.66;99524.08;1753759;81;20924;-43
2022/06/29 08:20:12;;;;;;;9.30;8.40;;;;;;;32.34;39.31;99519.28;1753707;81;20917;-43
2022/06/29 08:22:40;;;;;;;9.63;8.40;;;;;;;32.52;38.82;99520.89;1753747;81;21016;-43
2022/06/29 08:25:08;;;;;;;8.85;7.97;;;;;;;32.67;38.37;99525.69;1753739;81;20981;-43
2022/06/29 08:27:35;;;;;;;14.28;9.58;;;;;;;32.81;38.48;99518.94;1753753;81;21826;-43
2022/06/29 08:30:04;;;;;;;9.10;8.20;;;;;;;32.94;38.43;99524.19;1753865;81;21458;-43
2022/06/29 08:32:31;;;;;;;8.90;8.10;;;;;;;33.10;37.96;99531.88;1753964;81;21067;-43
2022/06/29 08:35:01;;;;;;;9.35;8.45;;;;;;;33.24;37.75;99532.92;1754123;81;21525;-43
2022/06/29 08:37:28;;;;;;;9.55;8.58;;;;;;;33.37;37.87;99538.02;1753906;81;21028;-43
2022/06/29 08:39:55;;;;;;;9.60;8.80;;;;;;;33.49;37.44;99539.55;1754116;81;21124;-43
2022/06/29 08:42:23;;;;;;;9.25;8.45;;;;;;;33.63;37.59;99538.52;1753982;81;21511;-43
2022/06/29 08:44:51;;;;;;;9.58;8.58;;;;;;;33.77;36.78;99541.71;1753939;81;21030;-43
2022/06/29 08:47:19;;;;;;;9.08;8.28;;;;;;;33.87;36.27;99533.12;1754327;81;21039;-43
2022/06/29 08:49:47;;;;;;;9.10;8.25;;;;;;;33.95;36.24;99541.16;1753915;81;20989;-43
2022/06/29 08:52:14;;;;;;;9.50;8.60;;;;;;;34.06;36.26;99529.10;1754122;81;21563;-43
2022/06/29 08:54:46;;;;;;;9.05;8.25;;;;;;;34.18;36.12;99528.47;1754039;81;21034;-43
2022/06/29 08:57:13;;;;;;;8.73;8.03;;;;;;;34.24;36.31;99524.33;1753933;81;21579;-43
2022/06/29 08:59:41;;;;;;;12.13;8.60;;;;;;;34.32;36.57;99523.16;1753848;81;21570;-43
2022/06/29 09:02:08;;;;;;;9.15;8.10;;;;;;;34.40;35.85;99522.72;1754027;81;21024;-43
2022/06/29 09:04:35;;;;;;;10.60;8.20;;;;;;;34.49;35.99;99519.60;1753950;81;21348;-43
2022/06/29 09:07:03;;;;;;;8.85;8.05;;;;;;;34.56;35.92;99518.30;1753797;81;20995;-43
2022/06/29 09:09:32;;;;;;;9.83;8.58;;;;;;;34.62;35.99;99528.22;1753609;81;21000;-43
2022/06/29 09:11:59;;;;;;;9.48;8.63;;;;;;;34.69;35.68;99526.30;1726524;81;21039;-43
2022/06/29 09:14:33;;;;;;;8.88;8.08;;;;;;;34.76;35.53;99528.55;1753824;81;21075;-43
2022/06/29 09:17:04;;;;;;;9.03;8.25;;;;;;;34.84;35.27;99533.00;1753627;81;21128;-43
2022/06/29 09:19:45;;;;;;;9.65;8.60;;;;;;;34.92;35.22;99522.69;1753848;81;21845;-43
2022/06/29 09:22:12;;;;;;;8.80;8.00;;;;;;;34.97;34.77;99523.94;1753795;81;21027;-43
2022/06/29 09:24:39;;;;;;;8.60;7.70;;;;;;;34.93;33.88;99515.00;1753699;81;21032;-43
2022/06/29 09:27:08;;;;;;;9.25;8.00;;;;;;;34.93;34.29;99515.00;1753717;81;21060;-43
2022/06/29 09:29:39;;;;;;;8.25;7.55;;;;;;;34.99;34.53;99515.73;1754176;81;21100;-43
2022/06/29 09:32:10;;;;;;;8.40;7.53;;;;;;;35.10;34.20;99510.76;1753860;81;20999;-43
2022/06/29 09:34:45;;;;;;;8.05;7.35;;;;;;;35.19;33.41;99511.13;1753063;81;21064;-43
2022/06/29 09:37:16;;;;;;;7.92;7.20;;;;;;;35.27;32.79;99510.66;1753643;81;21020;-43
2022/06/29 09:39:53;;;;;;;8.05;7.35;;;;;;;35.35;32.35;99509.42;1753081;81;21019;-43
2022/06/29 09:42:24;;;;;;;8.28;7.58;;;;;;;35.42;32.79;99511.69;1753764;81;21245;-43
2022/06/29 09:44:52;;;;;;;8.05;7.42;;;;;;;35.48;32.81;99502.53;1753946;81;21589;-43
2022/06/29 09:47:21;;;;;;;8.58;7.78;;;;;;;35.48;33.16;99503.30;1747830;81;21015;-43
2022/06/29 09:49:53;;;;;;;8.35;7.50;;;;;;;35.48;32.14;99497.66;1745935;82;21051;-43
2022/06/29 09:52:20;;;;;;;7.85;7.12;;;;;;;35.45;32.96;99494.47;1745433;82;21083;-43
2022/06/29 09:54:58;;;;;;;8.48;7.30;;;;;;;35.46;32.12;99491.00;1745621;81;21294;-43
2022/06/29 09:57:30;;;;;;;8.33;7.33;;;;;;;35.42;32.34;99489.89;1745577;82;21494;-43
2022/06/29 10:02:49;;;;;;;7.83;7.08;;;;;;;35.40;31.53;99479.01;1745666;82;21578;-43
2022/06/29 10:05:18;;;;;;;8.23;6.60;;;;;;;35.40;31.78;99477.60;1745716;82;21051;-43
2022/06/29 10:07:51;;;;;;;7.58;6.87;;;;;;;35.52;32.05;99476.98;1745673;82;21113;-43
2022/06/29 10:10:20;;;;;;;6.95;6.35;;;;;;;35.66;30.82;99477.23;1745939;81;20932;-43
2022/06/29 10:16:37;;;;;;;8.00;6.97;;;;;;;35.96;30.50;99470.10;1745760;81;21079;-43
2022/06/29 10:19:34;;;;;;;7.33;6.72;;;;;;;36.12;30.86;99458.46;1745719;81;21019;-43
2022/06/29 10:22:02;;;;;;;7.10;6.47;;;;;;;36.30;30.67;99455.58;1745613;81;21147;-43
2022/06/29 10:24:30;;;;;;;7.72;7.03;;;;;;;36.49;31.41;99454.91;1745518;82;21516;-43
2022/06/29 10:27:06;;;;;;;8.10;7.12;;;;;;;36.56;30.36;99448.62;1745771;82;21003;-43
2022/06/29 10:29:34;;;;;;;7.83;7.15;;;;;;;36.63;29.78;99440.23;1745596;81;21040;-43
2022/06/29 10:32:13;;;;;;;7.92;7.10;;;;;;;36.73;29.91;99431.47;1746051;82;21102;-43
2022/06/29 10:35:06;;;;;;;9.20;7.53;;;;;;;36.88;29.65;99435.97;1720031;82;21131;-43
2022/06/29 10:37:15;;;;;;;7.75;7.10;;;;;;;37.06;29.16;99428.08;1738662;81;21044;-43
2022/06/29 10:39:51;;;;;;;7.05;6.08;;;;;;;37.24;29.03;99425.84;1719899;82;20992;-43
2022/06/29 10:45:18;;;;;;;9.03;8.10;;;;;;;37.57;28.61;99419.48;1748961;82;21075;-43
2022/06/29 10:48:12;;;;;;;8.33;7.60;;;;;;;37.52;28.51;99411.84;1748994;82;21172;-43
2022/06/29 10:50:40;;;;;;;7.83;7.12;;;;;;;37.28;28.13;99419.20;1748919;82;20925;-43
2022/06/29 10:53:10;;;;;;;7.03;6.43;;;;;;;37.01;29.16;99415.56;1749412;82;20936;-43
2022/06/29 10:55:52;;;;;;;8.40;7.70;;;;;;;36.95;28.76;99416.95;1749069;82;21166;-43
2022/06/29 10:58:20;;;;;;;8.30;7.50;;;;;;;36.80;29.47;99418.88;1749134;82;20977;-43
2022/06/29 11:00:55;;;;;;;8.28;7.47;;;;;;;36.54;30.10;99410.30;1749078;82;21812;-43
2022/06/29 11:03:26;;;;;;;8.73;7.90;;;;;;;36.33;30.26;99417.14;1748846;82;21512;-43
2022/06/29 11:17:02;;;;;;;7.97;7.22;;;;;;;37.35;28.16;99403.67;1748764;82;20960;-43
2022/06/29 11:19:38;;;;;;;8.20;7.00;;;;;;;37.37;28.35;99391.94;1748719;82;20981;-43
2022/06/29 11:22:10;;;;;;;7.55;6.90;;;;;;;37.54;28.79;99392.27;1748318;82;21040;-43
2022/06/29 11:24:58;;;;;;;7.70;6.92;;;;;;;37.86;28.27;99387.22;1749064;82;20985;-43
2022/06/29 11:27:35;;;;;;;8.13;7.43;;;;;;;38.06;28.75;99389.38;1749107;82;21238;-43
2022/06/29 11:30:09;;;;;;;7.87;7.17;;;;;;;38.04;27.48;99385.59;1748874;82;21033;-43
2022/06/29 11:32:42;;;;;;;7.83;7.08;;;;;;;37.97;27.78;99381.31;1748871;82;21028;-43
2022/06/29 11:35:10;;;;;;;7.70;7.00;;;;;;;38.05;27.60;99377.20;1749250;82;21030;-43
2022/06/29 11:37:37;;;;;;;8.50;7.60;;;;;;;38.34;27.63;99373.83;1752119;81;20989;-43
2022/06/29 11:40:07;;;;;;;8.38;7.10;;;;;;;38.70;27.20;99359.17;1754469;81;21109;-43
2022/06/29 11:45:20;;;;;;;7.50;6.75;;;;;;;39.35;24.96;99343.05;1753995;81;21007;-43
2022/06/29 11:47:53;;;;;;;9.03;7.70;;;;;;;39.55;25.96;99342.95;1753955;81;21906;-44
2022/06/29 11:50:22;;;;;;;6.90;6.28;;;;;;;39.92;24.97;99331.69;1753334;81;21566;-43
2022/06/29 11:52:49;;;;;;;;;;;;;;;40.31;24.57;99329.70;1756419;81;21123;-43
2022/06/29 11:55:44;;;;;;;7.50;6.78;;;;;;;40.64;24.17;99320.09;1753891;81;20415;-44
2022/06/29 11:58:16;;;;;;;8.75;6.08;;;;;;;40.85;23.83;99311.36;1753980;81;21064;-43
2022/06/29 12:00:43;;;;;;;8.28;6.70;;;;;;;41.40;22.40;99295.77;1753839;81;21039;-44
2022/06/29 12:03:14;;;;;;;6.90;6.25;;;;;;;41.40;22.40;99295.77;1754213;81;21035;-44
2022/06/29 12:05:57;;;;;;;6.60;6.00;;;;;;;41.43;23.08;99283.25;1726372;81;21136;-44